Nearby METAR Reports

 

MWCR - Owen Roberts, Grand Cayman
Distance from station: NNE 3mi, 4km
Updated: 22/10/2017 19:00
Clear
Clear
 Wind from ENE
Wind: ENE 13 mph , 20 km/h
Temperature: 86°F , 30°C
Heat Index: 99°F , 37°C
Dew Point: 79°F , 26°C
Humidity: 79%
Barometer: 1013 hPa
Summary: Clear
Visibility: greater than 7 miles , 10 km
2017/10/23 00:00 MWCR 230000Z 07011KT CAVOK 30/26 Q1013
MWCB - Gerrard Smith, Cayman Brac
Distance from station: ENE 102mi, 164km
Updated: 22/10/2017 19:00
Few Clouds
Few Clouds
 Wind from ENE
Wind: ENE 5 mph , 7 km/h
Temperature: 82°F , 28°C
Heat Index: 90°F , 32°C
Dew Point: 77°F , 25°C
Humidity: 84%
Barometer: 1014 hPa
Clouds: Few Clouds
Visibility: 6 miles , 10 km
Cloud details: Few Clouds 2000 ft
2017/10/23 00:00 MWCB 230000Z 07004KT 9999 FEW020 28/25 Q1014
 
MUCL - Cayo Largo D Sur, Cuba
Distance from station: N 164mi, 264km
Updated: 22/10/2017 19:05

 Wind from ESE
Wind: ESE 8 mph , 13 km/h
Temperature: 84°F , 29°C
Heat Index: 94°F , 34°C
Dew Point: 77°F , 25°C
Humidity: 79%
Barometer: 1015 hPa
2017/10/23 00:05 MUCL 230005Z AUTO 11007KT 080V140 29/25 Q1015
MUCF - Cienfuegos(Civ/M, Cuba
Distance from station: NNE 208mi, 335km
Updated: 22/10/2017 18:59

 Wind from varies
Wind: varies 2 mph , 4 km/h
Temperature: 79°F , 26°C
Dew Point: 75°F , 24°C
Humidity: 89%
Barometer: 1015 hPa
2017/10/22 23:59 MUCF 222359Z AUTO VRB02KT 26/24 Q1015
 
MKJS - Sangster/Montego Bay, Jamaica
Distance from station: ESE 233mi, 375km
Updated: 22/10/2017 19:00
Partly cloudy
Partly cloudy
 Wind from E
Wind: E 13 mph , 20 km/h
Temperature: 84°F , 29°C
Heat Index: 90°F , 32°C
Dew Point: 73°F , 23°C
Humidity: 70%
Barometer: 1012 hPa
Clouds: Partly cloudy
Visibility: 6 miles , 10 km
Cloud details: Partly cloudy 2200 ft
2017/10/23 00:00 MKJS 230000Z 09011KT 9999 SCT022 29/23 Q1012
MUSC - Santa Clara, Cuba
Distance from station: NNE 242mi, 389km
Updated: 22/10/2017 18:51
Partly cloudy
Partly cloudy
 Wind from ENE
Wind: ENE 8 mph , 13 km/h
Temperature: 81°F , 27°C
Heat Index: 85°F , 29°C
Dew Point: 70°F , 21°C
Humidity: 70%
Barometer: 1016 hPa
Clouds: Partly cloudy
Visibility: 6 miles , 9 km
2017/10/22 23:51 MUSC 222351Z 07007KT 9000 NSC 27/21 Q1016
 
MUVR - Varadero, Cuba
Distance from station: N 260mi, 419km
Updated: 22/10/2017 18:50
Mostly cloudy
Mostly cloudy
 Wind from E
Wind: E 5 mph , 7 km/h
Temperature: 77°F , 25°C
Dew Point: 73°F , 23°C
Humidity: 89%
Barometer: 1016 hPa
Clouds: Mostly cloudy
Visibility: 6 miles , 9 km
Cloud details: Few Clouds 1900 ft
Mostly cloudy 2000 ft
2017/10/22 23:50 MUVR 222350Z 10004KT 9000 FEW019TCU BKN020 25/23 Q1016
MUHA - Havana/Jose Mar, Cuba
Distance from station: NNW 264mi, 425km
Updated: 22/10/2017 18:55
Few Clouds
Few Clouds
 Wind from E
Wind: E 3 mph , 6 km/h
Temperature: 79°F , 26°C
Dew Point: 75°F , 24°C
Humidity: 89%
Barometer: 1015 hPa
Clouds: Few Clouds
Visibility: 6 miles , 9 km
Cloud details: Few Clouds 2500 ft
2017/10/22 23:55 MUHA 222355Z 08003KT 9000 FEW025 26/24 Q1015
 
MUCM - Camaguey/Iganci, Cuba
Distance from station: NE 273mi, 439km
Updated: 22/10/2017 18:50
Few Clouds
Few Clouds
 Wind from E
Wind: E 10 mph , 17 km/h
Temperature: 79°F , 26°C
Dew Point: 72°F , 22°C
Humidity: 79%
Barometer: 1016 hPa
Clouds: Few Clouds
Visibility: 6 miles , 9 km
Cloud details: Few Clouds 2000 ft
2017/10/22 23:50 MUCM 222350Z 08009KT 9000 FEW020 26/22 Q1016
MUMZ - Manzanillo, Cuba
Distance from station: ENE 287mi, 462km
Updated: 11/10/2016 09:50
NOT Current
Partly cloudy
Partly cloudy
 Wind from ENE
Wind: ENE 12 mph , 19 km/h
Temperature: 84°F , 29°C
Heat Index: 89°F , 32°C
Dew Point: 72°F , 22°C
Humidity: 66%
Barometer: 1014 hPa
Clouds: Partly cloudy
Visibility: 6 miles , 9 km
Cloud details: Partly cloudy 2000 ft
2016/10/11 14:50 MUMZ 111450Z 07010KT 9000 SCT020 29/22 Q1014
 
MUCC - Canagua, Cuba
Distance from station: NE 296mi, 476km
Updated: 22/10/2017 18:50
Partly cloudy
Partly cloudy
 Wind from E
Wind: E 13 mph , 20 km/h
Temperature: 82°F , 28°C
Heat Index: 89°F , 32°C
Dew Point: 75°F , 24°C
Humidity: 79%
Barometer: 1016 hPa
Clouds: Partly cloudy
Visibility: 6 miles , 9 km
Cloud details: Partly cloudy 2000 ft
2017/10/22 23:50 MUCC 222350Z 09011KT 9000 SCT020 28/24 Q1016
MKJP - Kingston/Norman Manley, Jamaica
Distance from station: ESE 315mi, 507km
Updated: 22/10/2017 19:00
Few Clouds
Few Clouds
 Wind from SE
Wind: SE 16 mph , 26 km/h
Temperature: 86°F , 30°C
Heat Index: 92°F , 33°C
Dew Point: 72°F , 22°C
Humidity: 62%
Barometer: 1012 hPa
Clouds: Few Clouds
Visibility: 6 miles , 10 km
Cloud details: Few Clouds 2400 ft
2017/10/23 00:00 MKJP 230000Z 13014KT 9999 FEW024 30/22 Q1012
 
MHPL - Puerto Lempira, Honduras
Distance from station: SSW 318mi, 513km
Updated: 22/10/2017 19:00
Light rain
Light rain
 Wind from ENE
Wind: ENE 7 mph , 11 km/h
Temperature: 77°F , 25°C
Dew Point: 75°F , 24°C
Humidity: 94%
Barometer: 1010 hPa
Summary: Light rain
Visibility: 6 miles , 10 km
Cloud details: Mostly cloudy 2600 ft
8000 ft
2017/10/23 00:00 MHPL 230000Z 07006KT 9999 -RA BKN026 OCV080 25/24 Q1010 CB TCU VCSH ALL HZ
MUHG - Holguin (civ/Mil, Cuba
Distance from station: ENE 345mi, 555km
Updated: 22/10/2017 18:51
Mostly cloudy
Mostly cloudy
 Wind from E
Wind: E 13 mph , 20 km/h
Temperature: 81°F , 27°C
Heat Index: 85°F , 29°C
Dew Point: 70°F , 21°C
Humidity: 70%
Barometer: 1015 hPa
Clouds: Mostly cloudy
Visibility: 6 miles , 9 km
Cloud details: Few Clouds 2000 ft
Mostly cloudy 25000 ft
2017/10/22 23:51 MUHG 222351Z 09011KT 9000 FEW020TCU BKN250 27/21 Q1015